Time;durP1;ratioP1;P1;durP2;ratioP2;P2;SDS_P1;SDS_P2;PMS_P1;PMS_P2;Temp;Humidity;BMP_temperature;BMP_pressure;BME280_temperature;BME280_humidity;BME280_pressure;Samples;Min_cycle;Max_cycle;Signal;HPM_P1;HPM_P2
2022/08/14 00:01:22;;;;;;;9.43;5.32;;;23.60;49.80;;;;;;5107157;28;20402;-69
2022/08/14 00:03:48;;;;;;;6.20;5.30;;;23.50;49.90;;;;;;5114901;28;20052;-65
2022/08/14 00:06:14;;;;;;;6.75;6.00;;;23.40;50.10;;;;;;5116094;28;20039;-68
2022/08/14 00:08:39;;;;;;;7.05;5.32;;;23.40;50.30;;;;;;5095345;28;20492;-69
2022/08/14 00:11:05;;;;;;;7.20;5.53;;;23.30;50.40;;;;;;5095513;28;20126;-68
2022/08/14 00:13:31;;;;;;;6.95;6.20;;;23.20;50.70;;;;;;5113945;28;20394;-68
2022/08/14 00:15:59;;;;;;;6.32;5.72;;;23.10;50.90;;;;;;5108793;28;20104;-68
2022/08/14 00:18:27;;;;;;;8.52;5.72;;;23.00;51.00;;;;;;5116744;28;20394;-68
2022/08/14 00:20:54;;;;;;;7.35;6.15;;;23.00;51.60;;;;;;5117218;27;20550;-68
2022/08/14 00:23:20;;;;;;;7.30;6.60;;;22.80;51.30;;;;;;5119169;27;20031;-64
2022/08/14 00:25:50;;;;;;;9.93;5.30;;;22.80;51.40;;;;;;5100088;27;20501;-64
2022/08/14 00:28:15;;;;;;;6.70;5.65;;;22.80;51.50;;;;;;5118598;27;20039;-64
2022/08/14 00:30:42;;;;;;;7.28;6.57;;;22.80;51.60;;;;;;5118834;27;20093;-64
2022/08/14 00:33:08;;;;;;;7.72;6.60;;;22.70;51.70;;;;;;5100294;27;20118;-64
2022/08/14 00:35:34;;;;;;;5.93;5.32;;;22.70;51.80;;;;;;5085539;28;20118;-68
2022/08/14 00:38:00;;;;;;;6.18;5.55;;;22.70;51.90;;;;;;5114554;27;20043;-68
2022/08/14 00:40:27;;;;;;;6.50;5.90;;;22.70;51.70;;;;;;5132018;27;20044;-68
2022/08/14 00:42:52;;;;;;;6.72;5.43;;;22.70;51.40;;;;;;5116624;28;20053;-68
2022/08/14 00:45:18;;;;;;;5.72;5.18;;;22.60;51.10;;;;;;5117548;27;20042;-68
2022/08/14 00:47:46;;;;;;;6.35;5.38;;;22.60;50.90;;;;;;5119963;27;20023;-68
2022/08/14 00:50:19;;;;;;;6.88;5.65;;;22.70;51.00;;;;;;5118518;27;20493;-68
2022/08/14 00:52:47;;;;;;;6.78;6.07;;;22.70;50.80;;;;;;5108011;28;20414;-68
2022/08/14 00:55:13;;;;;;;6.03;5.47;;;22.70;51.00;;;;;;5094617;28;20036;-67
2022/08/14 00:57:39;;;;;;;6.05;5.38;;;22.70;50.80;;;;;;5116512;27;20549;-65
2022/08/14 01:00:13;;;;;;;6.93;5.88;;;22.70;50.70;;;;;;5135508;27;20055;-65
2022/08/14 01:02:42;;;;;;;7.07;5.95;;;22.70;50.90;;;;;;5135491;27;20039;-65
2022/08/14 01:05:22;;;;;;;5.95;5.45;;;22.80;50.80;;;;;;5124030;27;20039;-65
2022/08/14 01:07:58;;;;;;;5.68;5.13;;;22.80;51.10;;;;;;5113770;27;20035;-64
2022/08/14 01:10:49;;;;;;;6.20;5.60;;;22.80;50.70;;;;;;5105951;28;20100;-64
2022/08/14 01:13:18;;;;;;;6.40;5.82;;;22.80;50.70;;;;;;5114636;27;20081;-65
2022/08/14 01:15:45;;;;;;;6.32;5.55;;;22.80;50.80;;;;;;5097956;28;20103;-65
2022/08/14 01:21:02;;;;;;;6.07;5.57;;;22.80;50.50;;;;;;5098743;28;20580;-65
2022/08/14 01:23:33;;;;;;;6.10;5.45;;;22.80;50.40;;;;;;5098835;27;20042;-65
2022/08/14 01:25:59;;;;;;;6.13;5.45;;;22.80;50.20;;;;;;5097601;28;20036;-65
2022/08/14 01:28:25;;;;;;;7.30;6.55;;;22.90;50.20;;;;;;5098633;28;20035;-65
2022/08/14 01:30:56;;;;;;;6.20;5.43;;;22.80;50.90;;;;;;5126249;27;20083;-65
2022/08/14 01:33:27;;;;;;;8.20;6.13;;;22.80;50.70;;;;;;5115171;27;20039;-65
2022/08/14 01:35:59;;;;;;;6.57;5.97;;;22.80;50.60;;;;;;5106714;27;20103;-65
2022/08/14 01:38:27;;;;;;;6.80;5.88;;;22.90;50.70;;;;;;5117621;27;20050;-66
2022/08/14 01:40:53;;;;;;;6.57;5.97;;;22.80;50.60;;;;;;5115410;27;20043;-67
2022/08/14 01:43:18;;;;;;;5.88;5.38;;;22.80;50.50;;;;;;5104113;27;20439;-68
2022/08/14 01:45:45;;;;;;;7.07;5.85;;;22.80;50.30;;;;;;5097163;28;20050;-68
2022/08/14 01:48:11;;;;;;;6.32;5.75;;;22.80;50.30;;;;;;5101641;27;20398;-68
2022/08/14 01:50:37;;;;;;;8.88;6.90;;;22.80;50.30;;;;;;5117891;27;20043;-68
2022/08/14 01:53:03;;;;;;;5.78;5.28;;;22.80;50.70;;;;;;5115900;27;20550;-68
2022/08/14 01:55:30;;;;;;;7.82;7.13;;;22.80;50.80;;;;;;5099089;27;20395;-68
2022/08/14 01:58:00;;;;;;;7.50;6.65;;;22.80;51.00;;;;;;5117300;27;20118;-68
2022/08/14 02:00:25;;;;;;;8.77;6.85;;;22.80;51.30;;;;;;5124465;27;20052;-68
2022/08/14 02:02:51;;;;;;;6.50;5.90;;;22.70;51.20;;;;;;5116332;27;20058;-68
2022/08/14 02:05:16;;;;;;;7.93;7.22;;;22.70;51.10;;;;;;5115987;27;20032;-68
2022/08/14 02:07:45;;;;;;;7.00;6.30;;;22.70;51.40;;;;;;5102588;27;20476;-67
2022/08/14 02:10:12;;;;;;;8.10;7.30;;;22.60;51.50;;;;;;5135521;27;20065;-68
2022/08/14 02:12:39;;;;;;;7.40;6.70;;;22.60;51.80;;;;;;5114361;27;20126;-68
2022/08/14 02:15:08;;;;;;;8.50;7.63;;;22.60;51.90;;;;;;5109006;28;20044;-67
2022/08/14 02:17:34;;;;;;;6.97;6.28;;;22.50;52.10;;;;;;5096845;28;20043;-68
2022/08/14 02:19:59;;;;;;;6.78;6.07;;;22.50;52.00;;;;;;5113330;28;20036;-68
2022/08/14 02:22:26;;;;;;;7.65;6.90;;;22.50;51.80;;;;;;5096578;28;20050;-68
2022/08/14 02:24:52;;;;;;;6.75;6.05;;;22.40;51.80;;;;;;5110823;27;20039;-68
2022/08/14 02:27:19;;;;;;;7.28;6.50;;;22.40;51.90;;;;;;5083287;27;20051;-68
2022/08/14 02:29:45;;;;;;;8.50;7.68;;;22.40;52.10;;;;;;5134829;27;20386;-68
2022/08/14 02:32:10;;;;;;;6.63;6.03;;;22.40;52.40;;;;;;5104682;28;20048;-68
2022/08/14 02:34:37;;;;;;;7.93;7.10;;;22.30;52.10;;;;;;5087129;28;20069;-68
2022/08/14 02:37:10;;;;;;;7.35;6.53;;;22.30;52.10;;;;;;5126358;27;20440;-68
2022/08/14 02:39:41;;;;;;;7.30;6.47;;;22.30;51.90;;;;;;5134535;27;20586;-68
2022/08/14 02:42:09;;;;;;;6.63;6.03;;;22.20;52.00;;;;;;5099700;27;20035;-68
2022/08/14 02:44:34;;;;;;;7.47;6.75;;;22.30;51.90;;;;;;5108019;27;20439;-68
2022/08/14 02:47:01;;;;;;;6.88;6.07;;;22.20;52.10;;;;;;5116490;27;20065;-69
2022/08/14 02:49:27;;;;;;;7.07;6.38;;;22.20;51.90;;;;;;5103622;27;20561;-69
2022/08/14 02:51:55;;;;;;;7.80;6.97;;;22.20;52.30;;;;;;5134978;27;20494;-69
2022/08/14 02:54:25;;;;;;;6.53;5.95;;;22.20;52.30;;;;;;5113319;27;20050;-68
2022/08/14 02:56:53;;;;;;;6.75;6.15;;;22.20;52.20;;;;;;5105639;27;20045;-68
2022/08/14 02:59:19;;;;;;;6.40;5.80;;;22.20;52.30;;;;;;5095837;28;20055;-68
2022/08/14 03:01:46;;;;;;;7.20;6.50;;;22.20;52.00;;;;;;5113883;28;20051;-64
2022/08/14 03:04:13;;;;;;;6.28;5.65;;;22.10;52.20;;;;;;5103042;28;20047;-68
2022/08/14 03:06:42;;;;;;;8.32;6.82;;;22.10;52.00;;;;;;5099294;28;20047;-68
2022/08/14 03:09:08;;;;;;;9.93;8.35;;;22.10;52.20;;;;;;5095732;28;20085;-68
2022/08/14 03:11:34;;;;;;;10.50;8.98;;;22.10;52.60;;;;;;5129959;27;20044;-64
2022/08/14 03:14:00;;;;;;;8.60;7.40;;;22.10;53.00;;;;;;5123226;27;20047;-64
2022/08/14 03:16:34;;;;;;;7.20;6.50;;;22.10;52.90;;;;;;5094906;28;20057;-64
2022/08/14 03:19:01;;;;;;;8.80;7.95;;;22.00;52.80;;;;;;5095510;28;20123;-64
2022/08/14 03:21:30;;;;;;;7.65;6.95;;;22.00;53.00;;;;;;5113501;28;20043;-64
2022/08/14 03:24:11;;;;;;;8.35;7.40;;;22.00;53.00;;;;;;5096621;28;20036;-67
2022/08/14 03:26:42;;;;;;;7.28;6.55;;;22.00;53.10;;;;;;5075550;28;20058;-64
2022/08/14 03:29:11;;;;;;;9.52;8.52;;;21.90;52.90;;;;;;5109803;28;20187;-65
2022/08/14 03:31:39;;;;;;;8.68;7.75;;;21.90;53.30;;;;;;5112531;28;20040;-68
2022/08/14 03:34:09;;;;;;;7.80;6.47;;;21.90;53.40;;;;;;5108833;28;20040;-68
2022/08/14 03:36:35;;;;;;;8.13;7.43;;;21.80;53.10;;;;;;5105893;28;20036;-68
2022/08/14 03:39:04;;;;;;;6.30;5.70;;;21.90;53.30;;;;;;5102135;28;20054;-68
2022/08/14 03:41:30;;;;;;;6.93;6.32;;;21.80;52.90;;;;;;5111495;28;20050;-68
2022/08/14 03:43:58;;;;;;;5.97;5.47;;;21.80;52.90;;;;;;5102708;28;20388;-68
2022/08/14 03:46:26;;;;;;;6.68;6.07;;;21.80;52.60;;;;;;5108760;28;20036;-68
2022/08/14 03:48:53;;;;;;;7.03;6.32;;;21.80;52.50;;;;;;5105559;28;20067;-65
2022/08/14 03:51:20;;;;;;;6.35;5.75;;;21.80;52.60;;;;;;5093042;28;20044;-68
2022/08/14 03:53:47;;;;;;;6.97;6.15;;;21.80;52.40;;;;;;5099771;28;20036;-68
2022/08/14 03:56:15;;;;;;;7.90;6.28;;;21.80;52.50;;;;;;5101000;28;20036;-64
2022/08/14 03:58:44;;;;;;;7.35;6.65;;;21.80;52.40;;;;;;5116200;27;20115;-64
2022/08/14 04:01:11;;;;;;;7.13;6.45;;;21.80;52.40;;;;;;5118918;27;20120;-64
2022/08/14 04:03:37;;;;;;;7.47;6.88;;;21.80;52.90;;;;;;5118433;27;20035;-64
2022/08/14 04:06:04;;;;;;;7.22;6.35;;;21.70;52.70;;;;;;5109598;28;20114;-65
2022/08/14 04:08:33;;;;;;;7.32;6.63;;;21.70;52.60;;;;;;5099364;27;20035;-64
2022/08/14 04:10:59;;;;;;;7.10;6.47;;;21.70;52.60;;;;;;5118916;27;20039;-63
2022/08/14 04:13:25;;;;;;;8.05;6.97;;;21.70;52.60;;;;;;5117043;27;20043;-67
2022/08/14 04:15:50;;;;;;;7.20;6.50;;;21.70;52.60;;;;;;5103465;27;20066;-65
2022/08/14 04:18:16;;;;;;;8.25;6.20;;;21.70;52.70;;;;;;5098937;28;20043;-66
2022/08/14 04:20:42;;;;;;;7.00;6.32;;;21.70;52.60;;;;;;5114119;28;20126;-64
2022/08/14 04:23:09;;;;;;;7.60;6.60;;;21.70;52.50;;;;;;5082191;28;20038;-64
2022/08/14 04:25:36;;;;;;;7.97;7.25;;;21.70;52.50;;;;;;5117533;27;20050;-65
2022/08/14 04:28:06;;;;;;;8.50;7.70;;;21.70;52.80;;;;;;5118950;27;20046;-65
2022/08/14 04:30:38;;;;;;;7.50;6.82;;;21.70;53.00;;;;;;5084691;28;20050;-64
2022/08/14 04:33:07;;;;;;;8.95;8.15;;;21.70;53.10;;;;;;5116549;28;20046;-64
2022/08/14 04:35:37;;;;;;;7.85;7.15;;;21.70;53.60;;;;;;5131021;27;20027;-65
2022/08/14 04:43:40;;;;;;;9.35;8.45;;;21.60;53.60;;;;;;5099235;28;20051;-64
2022/08/14 04:46:10;;;;;;;10.10;9.07;;;21.60;54.10;;;;;;5098412;28;20541;-64
2022/08/14 04:48:36;;;;;;;12.52;10.25;;;21.50;54.50;;;;;;5099344;27;20122;-64
2022/08/14 04:51:04;;;;;;;10.23;9.23;;;21.40;54.70;;;;;;5116415;28;20165;-64
2022/08/14 04:53:32;;;;;;;10.55;9.55;;;21.40;55.00;;;;;;5085013;27;20054;-65
2022/08/14 04:55:58;;;;;;;9.85;8.85;;;21.30;55.20;;;;;;5097773;28;20050;-64
2022/08/14 04:58:27;;;;;;;10.40;9.38;;;21.20;55.40;;;;;;5118629;27;20125;-64
2022/08/14 05:00:54;;;;;;;11.40;10.30;;;21.20;55.70;;;;;;5130515;27;20514;-65
2022/08/14 05:03:21;;;;;;;11.75;9.98;;;21.20;55.90;;;;;;5098738;27;20522;-65
2022/08/14 05:05:48;;;;;;;9.77;8.77;;;21.10;56.10;;;;;;5122151;27;20035;-67
2022/08/14 05:08:14;;;;;;;10.50;9.48;;;21.00;56.30;;;;;;5118316;27;20039;-65
2022/08/14 05:10:42;;;;;;;10.15;9.25;;;21.00;56.50;;;;;;5135026;27;20050;-65
2022/08/14 05:13:09;;;;;;;10.63;9.57;;;20.90;56.60;;;;;;5113552;28;20480;-65
2022/08/14 05:15:36;;;;;;;11.15;10.05;;;20.90;56.80;;;;;;5097036;28;20044;-65
2022/08/14 05:18:08;;;;;;;10.38;9.38;;;20.80;57.00;;;;;;5097589;27;20040;-65
2022/08/14 05:20:34;;;;;;;9.32;8.52;;;20.80;57.20;;;;;;5097280;27;20039;-65
2022/08/14 05:23:01;;;;;;;11.32;10.13;;;20.70;57.40;;;;;;5097955;28;20761;-65
2022/08/14 05:25:27;;;;;;;10.73;9.65;;;20.80;57.70;;;;;;5098220;28;20039;-65
2022/08/14 05:27:53;;;;;;;10.20;8.65;;;20.70;57.80;;;;;;5080744;28;20042;-64
2022/08/14 05:30:18;;;;;;;11.23;10.13;;;20.70;57.90;;;;;;5113058;27;20035;-65
2022/08/14 05:32:44;;;;;;;11.02;9.93;;;20.70;58.20;;;;;;5083592;27;20703;-64
2022/08/14 05:35:10;;;;;;;11.57;10.38;;;20.70;58.30;;;;;;5112799;27;20035;-64
2022/08/14 05:37:38;;;;;;;11.85;9.65;;;20.70;58.60;;;;;;5117998;27;20039;-63
2022/08/14 05:40:04;;;;;;;12.18;10.98;;;20.70;58.80;;;;;;5123906;27;20391;-64
2022/08/14 05:42:30;;;;;;;10.90;9.73;;;20.70;59.00;;;;;;5089588;28;20470;-64
2022/08/14 05:44:56;;;;;;;10.30;9.32;;;20.70;59.00;;;;;;5095713;28;20482;-64
2022/08/14 05:47:22;;;;;;;10.90;9.80;;;20.70;59.10;;;;;;5100026;28;20040;-63
2022/08/14 05:49:48;;;;;;;11.07;10.07;;;20.70;59.20;;;;;;5098136;28;20031;-64
2022/08/14 05:52:14;;;;;;;11.13;10.02;;;20.70;59.30;;;;;;5115670;28;20050;-69
2022/08/14 05:54:41;;;;;;;10.73;9.57;;;20.80;59.40;;;;;;5104638;28;20088;-68
2022/08/14 05:57:06;;;;;;;10.10;9.20;;;20.80;59.50;;;;;;5108435;28;20126;-68
2022/08/14 05:59:32;;;;;;;10.30;9.30;;;20.80;59.60;;;;;;5109690;27;20463;-68
2022/08/14 06:01:58;;;;;;;9.55;8.55;;;20.80;59.70;;;;;;5113904;28;20052;-69
2022/08/14 06:04:23;;;;;;;11.82;9.30;;;21.00;59.70;;;;;;5116586;27;20039;-68
2022/08/14 06:06:49;;;;;;;11.40;8.73;;;21.10;59.50;;;;;;5109956;28;20040;-65
2022/08/14 06:09:14;;;;;;;11.10;9.25;;;21.20;59.40;;;;;;5115214;27;20036;-64
2022/08/14 06:11:40;;;;;;;9.35;8.55;;;21.40;59.10;;;;;;5103416;28;20558;-64
2022/08/14 06:14:06;;;;;;;9.93;8.93;;;21.60;58.80;;;;;;5100551;27;20087;-67
2022/08/14 06:16:32;;;;;;;9.00;8.00;;;21.80;58.50;;;;;;5116462;27;20039;-68
2022/08/14 06:18:58;;;;;;;8.88;8.07;;;21.90;58.40;;;;;;5092976;27;20406;-68
2022/08/14 06:21:23;;;;;;;9.20;8.30;;;22.10;57.80;;;;;;5123649;27;20043;-70
2022/08/14 06:23:50;;;;;;;9.35;8.35;;;22.30;57.50;;;;;;5101411;27;20039;-69
2022/08/14 06:26:15;;;;;;;10.35;8.27;;;22.50;57.30;;;;;;5100536;27;20050;-68
2022/08/14 06:28:41;;;;;;;9.18;8.32;;;22.70;57.00;;;;;;5099818;27;20031;-69
2022/08/14 06:31:07;;;;;;;9.68;8.70;;;22.90;56.60;;;;;;5125943;27;20043;-68
2022/08/14 06:33:32;;;;;;;9.60;8.35;;;23.10;56.20;;;;;;5102993;28;20047;-70
2022/08/14 06:35:58;;;;;;;8.75;7.55;;;23.20;56.00;;;;;;5096421;28;20073;-69
2022/08/14 06:38:24;;;;;;;8.10;7.22;;;23.30;55.70;;;;;;5097677;27;20043;-69
2022/08/14 06:40:50;;;;;;;7.82;7.10;;;23.50;55.40;;;;;;5127631;27;20043;-69
2022/08/14 06:43:18;;;;;;;7.20;6.40;;;23.70;55.30;;;;;;5114990;27;20041;-70
2022/08/14 06:45:46;;;;;;;8.48;7.35;;;23.80;54.70;;;;;;5133487;27;20050;-69
2022/08/14 06:48:23;;;;;;;8.25;7.45;;;24.00;54.50;;;;;;5133772;27;20371;-69
2022/08/14 06:50:50;;;;;;;8.15;7.18;;;24.10;54.30;;;;;;5098846;28;20042;-68
2022/08/14 06:53:18;;;;;;;9.00;6.80;;;24.10;54.20;;;;;;5119485;27;20031;-65
2022/08/14 06:55:46;;;;;;;7.68;6.90;;;24.30;54.20;;;;;;5095746;28;20068;-65
2022/08/14 06:58:15;;;;;;;9.52;6.93;;;24.50;53.70;;;;;;5079292;28;20077;-68
2022/08/14 07:05:44;;;;;;;7.97;7.07;;;24.70;53.20;;;;;;5114953;27;20521;-68
2022/08/14 07:06:14;;;;;;;7.90;7.07;;;25.00;52.90;;;;;;5094798;28;20090;-68
2022/08/14 07:08:42;;;;;;;7.15;6.45;;;25.10;52.70;;;;;;5099104;27;20058;-69
2022/08/14 07:11:09;;;;;;;9.98;6.80;;;25.20;52.30;;;;;;5106930;28;20048;-70
2022/08/14 07:13:35;;;;;;;7.43;6.63;;;25.30;52.00;;;;;;5108010;27;20043;-70
2022/08/14 07:16:01;;;;;;;8.73;6.57;;;25.40;52.00;;;;;;5112784;27;20359;-70
2022/08/14 07:18:28;;;;;;;7.88;6.40;;;25.40;52.00;;;;;;5115053;27;20035;-70
2022/08/14 07:20:55;;;;;;;6.93;6.32;;;25.50;51.80;;;;;;5078706;28;20088;-70
2022/08/14 07:23:25;;;;;;;7.13;6.45;;;25.70;51.80;;;;;;5119134;27;20101;-71
2022/08/14 07:25:55;;;;;;;7.80;6.93;;;25.70;51.40;;;;;;5101429;27;20043;-70
2022/08/14 07:28:25;;;;;;;7.38;6.68;;;25.70;51.30;;;;;;5115419;27;20074;-70
2022/08/14 07:30:56;;;;;;;7.43;6.60;;;25.70;51.30;;;;;;5109090;28;20052;-70
2022/08/14 07:33:24;;;;;;;8.88;6.88;;;25.80;51.90;;;;;;5095544;28;20588;-70
2022/08/14 07:35:50;;;;;;;7.53;6.03;;;26.00;51.50;;;;;;5096037;28;20371;-70
2022/08/14 07:38:19;;;;;;;7.10;6.40;;;26.20;51.10;;;;;;5095508;28;20043;-70
2022/08/14 07:40:45;;;;;;;6.88;6.18;;;26.20;50.60;;;;;;5095859;28;20047;-70
2022/08/14 07:43:12;;;;;;;7.53;6.43;;;26.30;50.00;;;;;;5095437;28;20051;-70
2022/08/14 07:45:39;;;;;;;7.85;6.43;;;26.40;49.70;;;;;;5114004;27;20139;-70
2022/08/14 07:48:05;;;;;;;7.65;6.10;;;26.30;50.00;;;;;;5117855;28;20372;-69
2022/08/14 07:50:32;;;;;;;6.70;6.00;;;26.40;49.90;;;;;;5078656;28;20039;-69
2022/08/14 07:52:58;;;;;;;6.75;6.15;;;26.40;50.00;;;;;;5095501;28;20568;-69
2022/08/14 07:55:24;;;;;;;7.65;6.30;;;26.50;50.10;;;;;;5098280;28;20071;-69
2022/08/14 07:57:50;;;;;;;6.40;5.80;;;26.60;50.00;;;;;;5124488;28;20058;-70
2022/08/14 08:00:18;;;;;;;7.57;5.85;;;26.70;49.60;;;;;;5111118;28;20051;-69
2022/08/14 08:02:46;;;;;;;6.63;5.35;;;26.80;49.80;;;;;;5113573;28;20052;-69
2022/08/14 08:05:14;;;;;;;6.43;5.57;;;26.90;49.70;;;;;;5100056;28;20043;-70
2022/08/14 08:07:41;;;;;;;6.25;5.63;;;27.00;49.20;;;;;;5104143;28;20047;-69
2022/08/14 08:13:09;;;;;;;6.03;5.40;;;27.00;48.70;;;;;;5094989;28;20059;-69
2022/08/14 08:15:45;;;;;;;6.47;5.70;;;27.10;49.00;;;;;;5115622;28;20363;-68
2022/08/14 08:18:13;;;;;;;6.60;6.03;;;27.10;48.60;;;;;;5131448;28;20039;-69
2022/08/14 08:20:45;;;;;;;5.38;4.82;;;27.10;48.40;;;;;;5100457;28;20047;-69
2022/08/14 08:23:12;;;;;;;6.40;5.80;;;27.30;48.40;;;;;;5113560;28;20039;-69
2022/08/14 08:25:41;;;;;;;6.18;5.57;;;27.40;48.50;;;;;;5111600;28;20832;-70
2022/08/14 08:28:11;;;;;;;5.93;5.35;;;27.50;48.10;;;;;;5098665;28;20031;-69
2022/08/14 08:30:39;;;;;;;5.70;5.00;;;27.70;47.70;;;;;;5114627;28;20386;-69
2022/08/14 08:33:09;;;;;;;6.50;5.90;;;27.80;46.70;;;;;;5120899;28;20032;-69
2022/08/14 08:35:37;;;;;;;6.03;5.47;;;27.90;46.80;;;;;;5133043;28;20043;-68
2022/08/14 08:38:04;;;;;;;6.90;5.32;;;28.00;47.00;;;;;;5134127;27;20091;-68
2022/08/14 08:40:36;;;;;;;8.65;5.60;;;28.10;46.80;;;;;;5131173;27;20042;-69
2022/08/14 08:43:05;;;;;;;6.25;5.22;;;28.20;46.70;;;;;;5137664;27;20035;-69
2022/08/14 08:45:33;;;;;;;5.72;5.13;;;28.30;45.60;;;;;;5137333;27;20031;-70
2022/08/14 08:47:58;;;;;;;5.38;4.60;;;28.40;45.40;;;;;;5116639;27;20043;-68
2022/08/14 08:50:31;;;;;;;6.35;5.07;;;28.50;45.40;;;;;;5103477;28;20046;-68
2022/08/14 08:53:03;;;;;;;7.28;5.25;;;28.50;44.60;;;;;;5112081;27;20039;-68
2022/08/14 08:55:39;;;;;;;6.38;5.68;;;28.40;44.40;;;;;;5098412;28;20438;-67
2022/08/14 08:58:07;;;;;;;5.63;4.95;;;28.40;44.70;;;;;;5098022;28;20050;-68
2022/08/14 09:00:35;;;;;;;5.30;4.90;;;28.50;45.00;;;;;;5107274;28;20055;-68
2022/08/14 09:03:02;;;;;;;8.25;4.88;;;28.50;44.80;;;;;;5106872;28;20043;-68
2022/08/14 09:05:30;;;;;;;6.43;4.65;;;28.60;44.70;;;;;;5116195;28;20097;-68
2022/08/14 09:08:09;;;;;;;5.63;5.13;;;28.60;44.50;;;;;;5109746;28;20040;-68
2022/08/14 09:10:36;;;;;;;7.70;4.78;;;28.70;44.30;;;;;;5124959;27;20039;-68
2022/08/14 09:13:01;;;;;;;7.72;5.65;;;28.70;44.10;;;;;;5133781;27;20035;-68
2022/08/14 09:15:27;;;;;;;5.68;4.75;;;28.90;44.20;;;;;;5102623;27;20043;-68
2022/08/14 09:17:53;;;;;;;5.22;4.72;;;28.90;44.20;;;;;;5117381;27;20054;-68
2022/08/14 09:20:19;;;;;;;5.50;5.00;;;29.00;44.10;;;;;;5113582;27;20063;-68
2022/08/14 09:22:46;;;;;;;5.53;4.88;;;29.00;44.20;;;;;;5117689;27;20528;-68
2022/08/14 09:25:13;;;;;;;6.95;5.32;;;29.20;43.80;;;;;;5136239;27;20085;-68
2022/08/14 09:27:38;;;;;;;6.80;4.80;;;29.20;43.30;;;;;;5098924;27;20046;-68
2022/08/14 09:30:06;;;;;;;5.32;4.82;;;29.20;43.20;;;;;;5094933;27;20394;-68
2022/08/14 09:32:45;;;;;;;6.18;5.07;;;29.30;43.40;;;;;;5128758;27;20478;-67
2022/08/14 09:35:28;;;;;;;6.30;4.53;;;29.30;42.80;;;;;;5117756;27;20058;-68
2022/08/14 09:38:32;;;;;;;6.05;5.00;;;29.30;42.90;;;;;;5104319;27;20043;-68
2022/08/14 09:41:01;;;;;;;5.18;4.78;;;29.30;42.60;;;;;;5103117;27;20062;-69
2022/08/14 09:43:32;;;;;;;5.57;5.07;;;29.40;43.50;;;;;;5113140;27;20134;-70
2022/08/14 09:45:58;;;;;;;5.30;4.57;;;29.40;43.10;;;;;;5105728;27;20045;-69
2022/08/14 09:48:26;;;;;;;5.63;4.82;;;29.50;42.80;;;;;;5119791;27;20039;-70
2022/08/14 09:50:54;;;;;;;5.93;5.32;;;29.60;43.10;;;;;;5109453;27;20087;-69
2022/08/14 09:54:10;;;;;;;6.05;5.47;;;29.70;42.80;;;;;;5110697;27;20096;-68
2022/08/14 09:56:44;;;;;;;5.90;5.30;;;29.80;42.60;;;;;;5110639;27;20043;-70
2022/08/14 09:59:13;;;;;;;6.20;5.60;;;29.80;42.40;;;;;;5110768;27;20052;-69
2022/08/14 10:01:40;;;;;;;5.03;4.53;;;29.80;41.80;;;;;;5112138;27;20126;-70
2022/08/14 10:04:24;;;;;;;7.10;5.47;;;29.80;41.80;;;;;;5111601;27;20031;-70
2022/08/14 10:06:50;;;;;;;6.10;4.70;;;29.80;41.50;;;;;;5123458;27;20050;-70
2022/08/14 10:09:17;;;;;;;5.05;4.10;;;29.80;42.10;;;;;;5104275;27;20040;-70
2022/08/14 10:11:57;;;;;;;5.65;4.85;;;29.80;41.90;;;;;;5092576;27;20179;-70
2022/08/14 10:14:25;;;;;;;5.40;4.90;;;29.80;41.40;;;;;;5111524;27;20034;-69
2022/08/14 10:16:54;;;;;;;6.45;4.75;;;29.90;41.90;;;;;;5111070;27;20093;-70
2022/08/14 10:19:24;;;;;;;6.25;4.78;;;30.00;42.10;;;;;;5110912;27;20031;-70
2022/08/14 10:22:06;;;;;;;7.88;5.03;;;30.00;41.90;;;;;;5109922;27;20055;-70
2022/08/14 10:24:40;;;;;;;5.95;5.30;;;30.10;41.60;;;;;;5112570;27;20804;-70
2022/08/14 10:27:24;;;;;;;5.35;4.40;;;30.10;40.80;;;;;;5111109;27;20035;-69
2022/08/14 10:29:53;;;;;;;5.93;4.72;;;30.10;41.20;;;;;;5119527;27;20440;-69
2022/08/14 10:32:21;;;;;;;5.28;4.80;;;30.20;42.00;;;;;;5104459;27;20043;-69
2022/08/14 10:34:48;;;;;;;6.13;4.47;;;30.20;41.20;;;;;;5102171;27;20046;-69
2022/08/14 10:37:16;;;;;;;5.35;4.85;;;30.20;41.20;;;;;;5105282;27;20035;-69
2022/08/14 10:39:44;;;;;;;5.22;4.72;;;30.30;41.70;;;;;;5102905;27;20054;-69
2022/08/14 10:42:12;;;;;;;5.88;4.63;;;30.30;41.40;;;;;;5104118;27;20046;-69
2022/08/14 10:44:47;;;;;;;5.55;4.63;;;30.40;41.50;;;;;;5100826;27;20032;-69
2022/08/14 10:47:14;;;;;;;6.78;5.10;;;30.50;41.40;;;;;;5102025;27;20439;-68
2022/08/14 10:49:49;;;;;;;9.15;5.00;;;30.60;40.90;;;;;;5102630;27;20103;-68
2022/08/14 10:52:24;;;;;;;5.25;4.68;;;30.70;40.80;;;;;;5100881;27;20051;-68
2022/08/14 10:54:51;;;;;;;5.30;4.15;;;30.70;40.60;;;;;;5093790;27;20122;-68
2022/08/14 10:57:23;;;;;;;5.97;4.20;;;30.60;40.40;;;;;;5098771;27;20478;-68
2022/08/14 10:59:54;;;;;;;6.10;4.95;;;30.70;40.50;;;;;;5093616;28;20055;-69
2022/08/14 11:02:28;;;;;;;5.18;4.43;;;30.70;41.20;;;;;;5096018;28;20044;-68
2022/08/14 11:05:06;;;;;;;4.47;4.05;;;30.80;40.70;;;;;;5079519;28;20044;-69
2022/08/14 11:07:33;;;;;;;5.15;4.38;;;30.80;40.90;;;;;;5095640;28;20136;-69
2022/08/14 11:10:03;;;;;;;6.18;4.05;;;30.80;40.50;;;;;;5101404;28;20057;-69
2022/08/14 11:12:49;;;;;;;4.78;4.32;;;30.90;41.00;;;;;;5101603;28;20078;-68
2022/08/14 11:15:18;;;;;;;5.45;4.38;;;31.00;40.00;;;;;;5100642;28;20035;-68
2022/08/14 11:17:46;;;;;;;5.07;4.55;;;31.10;40.20;;;;;;5100452;28;20051;-68
2022/08/14 11:20:17;;;;;;;5.15;4.18;;;31.10;39.90;;;;;;5101982;28;20047;-68
2022/08/14 11:22:44;;;;;;;5.57;4.57;;;31.10;39.40;;;;;;5103455;28;20688;-68
2022/08/14 11:25:13;;;;;;;5.15;4.47;;;31.10;39.60;;;;;;5103448;28;20047;-69
2022/08/14 11:27:44;;;;;;;4.90;4.50;;;31.10;39.70;;;;;;5102565;28;20478;-69
2022/08/14 11:30:13;;;;;;;4.82;4.20;;;31.10;39.20;;;;;;5101828;28;20082;-69
2022/08/14 11:32:49;;;;;;;4.35;3.95;;;31.20;38.90;;;;;;5104666;28;20035;-69
2022/08/14 11:35:25;;;;;;;5.93;4.30;;;31.20;38.90;;;;;;5100928;28;20507;-69
2022/08/14 11:38:00;;;;;;;5.97;4.32;;;31.30;38.50;;;;;;5103373;28;20596;-69
2022/08/14 11:40:33;;;;;;;5.72;4.68;;;31.30;38.70;;;;;;5102184;28;20126;-69
2022/08/14 11:43:01;;;;;;;4.82;4.13;;;31.20;38.80;;;;;;5119368;27;20082;-69
2022/08/14 11:45:33;;;;;;;5.70;4.40;;;31.20;38.60;;;;;;5101613;28;20123;-69
2022/08/14 11:48:00;;;;;;;4.28;3.88;;;31.20;38.70;;;;;;5101673;28;20039;-68
2022/08/14 11:50:32;;;;;;;4.60;4.20;;;31.30;39.30;;;;;;5098403;28;20078;-69
2022/08/14 11:53:01;;;;;;;5.03;4.63;;;31.30;39.80;;;;;;5099815;28;20829;-68
2022/08/14 11:55:36;;;;;;;5.53;4.30;;;31.40;39.10;;;;;;5114212;28;20119;-68
2022/08/14 11:58:10;;;;;;;4.80;4.32;;;31.40;39.30;;;;;;5080075;28;20086;-69
2022/08/14 12:00:52;;;;;;;5.00;4.32;;;31.40;39.00;;;;;;5117098;28;20190;-69
2022/08/14 12:03:18;;;;;;;4.85;4.20;;;31.40;38.80;;;;;;5118033;28;20498;-68
2022/08/14 12:05:45;;;;;;;4.55;4.15;;;31.50;38.40;;;;;;5101703;28;20032;-68
2022/08/14 12:08:11;;;;;;;5.35;4.18;;;31.40;38.60;;;;;;5086058;28;20143;-68
2022/08/14 12:10:40;;;;;;;4.53;4.13;;;31.40;38.50;;;;;;5120597;28;20035;-68
2022/08/14 12:13:17;;;;;;;5.18;4.45;;;31.40;39.10;;;;;;5104002;27;20080;-67
2022/08/14 12:15:47;;;;;;;5.53;4.32;;;31.30;38.00;;;;;;5121140;27;20034;-69
2022/08/14 12:18:14;;;;;;;4.40;4.00;;;31.30;38.20;;;;;;5123779;27;20043;-69
2022/08/14 12:20:45;;;;;;;5.80;4.78;;;31.20;38.40;;;;;;5119953;27;20043;-69
2022/08/14 12:23:25;;;;;;;4.70;4.20;;;31.20;38.40;;;;;;5105972;27;20061;-69
2022/08/14 12:26:23;;;;;;;8.05;4.60;;;31.20;38.70;;;;;;5109646;27;20045;-69
2022/08/14 12:28:50;;;;;;;5.63;4.55;;;31.10;38.80;;;;;;5069825;27;20096;-69
2022/08/14 12:31:20;;;;;;;4.45;4.05;;;31.20;39.70;;;;;;5087752;27;20051;-69
2022/08/14 12:34:00;;;;;;;4.68;4.28;;;31.30;39.60;;;;;;5105015;27;20081;-69
2022/08/14 12:36:29;;;;;;;5.28;4.78;;;31.40;39.90;;;;;;5106795;27;20050;-69
2022/08/14 12:38:56;;;;;;;5.82;4.90;;;31.50;39.10;;;;;;5106101;27;20043;-69
2022/08/14 12:41:25;;;;;;;5.50;4.57;;;31.50;39.20;;;;;;5121399;27;20068;-69
2022/08/14 12:43:56;;;;;;;4.97;4.47;;;31.60;38.70;;;;;;5122904;27;20446;-69
2022/08/14 12:46:29;;;;;;;5.50;4.63;;;31.70;38.10;;;;;;5107882;27;20103;-69
2022/08/14 12:48:57;;;;;;;6.88;4.60;;;31.80;37.60;;;;;;5108681;27;20054;-69
2022/08/14 12:51:25;;;;;;;5.05;4.15;;;31.80;37.30;;;;;;5115182;27;20046;-68
2022/08/14 12:53:58;;;;;;;5.32;4.72;;;31.80;37.50;;;;;;5101386;27;20103;-68
2022/08/14 12:56:24;;;;;;;5.15;4.65;;;31.90;37.40;;;;;;5100243;27;20133;-68
2022/08/14 12:58:53;;;;;;;5.28;4.38;;;31.90;38.20;;;;;;5102628;27;20055;-68
2022/08/14 13:01:26;;;;;;;5.43;4.13;;;31.90;38.30;;;;;;5112453;27;20493;-69
2022/08/14 13:04:11;;;;;;;5.57;4.55;;;32.00;38.40;;;;;;5105403;27;20446;-69
2022/08/14 13:06:40;;;;;;;6.10;4.78;;;32.00;37.80;;;;;;5116414;27;20076;-69
2022/08/14 13:09:08;;;;;;;5.82;4.50;;;32.00;37.70;;;;;;5101201;27;20127;-69